createdAt,value
2023-01-28T00:00:00.785Z,1.86
2023-01-28T00:02:33.117Z,1.86
2023-01-28T00:05:04.905Z,1.88
2023-01-28T00:07:36.216Z,1.91
2023-01-28T00:10:08.178Z,1.92
2023-01-28T00:12:39.431Z,1.94
2023-01-28T00:15:11.700Z,1.97
2023-01-28T00:17:43.246Z,1.87
2023-01-28T00:20:14.757Z,1.84
2023-01-28T00:22:51.834Z,1.82
2023-01-28T00:25:23.618Z,1.81
2023-01-28T00:27:55.496Z,1.84
2023-01-28T00:30:26.825Z,1.91
2023-01-28T00:32:58.154Z,1.90
2023-01-28T00:35:30.003Z,1.94
2023-01-28T00:38:03.394Z,1.93
2023-01-28T00:40:35.266Z,1.89
2023-01-28T00:43:06.509Z,1.91
2023-01-28T00:45:38.942Z,1.85
2023-01-28T00:48:10.219Z,1.94
2023-01-28T00:50:41.575Z,1.85
2023-01-28T00:53:12.812Z,1.93
2023-01-28T00:55:44.198Z,1.89
2023-01-28T00:58:15.500Z,1.91
2023-01-28T01:00:47.054Z,1.82
2023-01-28T01:03:19.139Z,1.93
2023-01-28T01:05:50.416Z,1.92
2023-01-28T01:08:34.993Z,1.90
2023-01-28T01:11:07.997Z,1.89
2023-01-28T01:13:39.362Z,1.89
2023-01-28T01:16:13.151Z,1.87
2023-01-28T01:18:44.759Z,1.74
2023-01-28T01:21:18.595Z,1.89
2023-01-28T01:23:49.912Z,1.86
2023-01-28T01:26:21.647Z,1.77
2023-01-28T01:28:53.545Z,1.87
2023-01-28T01:31:25.003Z,1.86
2023-01-28T01:33:56.336Z,1.84
2023-01-28T01:36:27.671Z,1.70
2023-01-28T01:38:59.065Z,1.73
2023-01-28T01:41:32.772Z,1.76
2023-01-28T01:44:06.182Z,1.75
2023-01-28T01:46:45.965Z,1.73
2023-01-28T01:49:26.311Z,1.73
2023-01-28T01:52:03.437Z,1.71
2023-01-28T01:54:36.978Z,1.55
2023-01-28T01:57:13.858Z,1.52
2023-01-28T01:59:45.637Z,1.68
2023-01-28T02:02:17.581Z,1.61
2023-01-28T02:04:48.939Z,1.56
2023-01-28T02:07:20.592Z,1.53
2023-01-28T02:09:51.877Z,1.54
2023-01-28T02:12:29.010Z,1.52
2023-01-28T02:15:05.049Z,1.46
2023-01-28T02:17:37.683Z,1.46
2023-01-28T02:20:19.318Z,1.45
2023-01-28T02:23:20.564Z,1.47
2023-01-28T02:26:03.940Z,1.47
2023-01-28T02:28:43.703Z,1.37
2023-01-28T02:31:29.963Z,1.48
2023-01-28T02:34:31.536Z,1.45
2023-01-28T02:37:14.307Z,1.41
2023-01-28T02:39:49.454Z,1.29
2023-01-28T02:42:29.201Z,1.39
2023-01-28T02:45:00.720Z,1.29
2023-01-28T02:47:50.487Z,1.42
2023-01-28T02:50:21.810Z,1.42
2023-01-28T02:53:15.046Z,1.39
2023-01-28T02:56:11.924Z,1.39
2023-01-28T02:59:26.578Z,1.36
2023-01-28T03:02:15.055Z,1.35
2023-01-28T03:04:51.358Z,1.33
2023-01-28T03:07:26.880Z,1.31
2023-01-28T03:10:04.126Z,1.23
2023-01-28T03:12:58.732Z,1.22
2023-01-28T03:15:55.461Z,1.18
2023-01-28T03:18:59.901Z,1.14
2023-01-28T03:21:55.038Z,1.19
2023-01-28T03:24:50.147Z,1.19
2023-01-28T03:27:44.599Z,1.15
2023-01-28T03:30:44.282Z,1.14
2023-01-28T03:33:35.421Z,1.03
2023-01-28T03:36:26.685Z,1.06
2023-01-28T03:38:58.627Z,1.15
2023-01-28T03:41:29.886Z,1.09
2023-01-28T03:44:19.828Z,0.97
2023-01-28T03:46:51.178Z,1.11
2023-01-28T03:49:22.594Z,1.13
2023-01-28T03:51:53.855Z,1.02
2023-01-28T03:54:25.106Z,1.13
2023-01-28T03:56:56.379Z,1.11
2023-01-28T03:59:27.675Z,1.14
2023-01-28T04:01:59.028Z,1.04
2023-01-28T04:04:32.439Z,1.14
2023-01-28T04:07:03.707Z,1.06
2023-01-28T04:09:35.848Z,1.19
2023-01-28T04:12:07.475Z,1.22
2023-01-28T04:14:40.071Z,1.24
2023-01-28T04:17:11.501Z,1.25
2023-01-28T04:19:42.778Z,1.24
2023-01-28T04:22:14.035Z,1.23
2023-01-28T04:24:45.412Z,1.17
2023-01-28T04:27:16.721Z,1.17
2023-01-28T04:29:47.990Z,1.13
2023-01-28T04:32:19.247Z,1.07
2023-01-28T04:34:50.537Z,0.97
2023-01-28T04:37:21.809Z,0.92
2023-01-28T04:39:53.096Z,0.80
2023-01-28T04:42:24.440Z,0.72
2023-01-28T04:44:55.717Z,0.49
2023-01-28T04:47:27.149Z,0.18
2023-01-28T04:49:58.424Z,0.31
2023-01-28T04:52:29.685Z,0.18
2023-01-28T04:55:01.153Z,0.05
2023-01-28T04:57:32.433Z,-0.11
2023-01-28T05:00:05.590Z,-0.22
2023-01-28T05:02:36.871Z,-0.47
2023-01-28T05:05:11.093Z,-0.47
2023-01-28T05:07:42.352Z,-0.56
2023-01-28T05:10:13.624Z,-0.63
2023-01-28T05:12:45.456Z,-0.71
2023-01-28T05:15:18.049Z,-0.78
2023-01-28T05:17:49.388Z,-0.86
2023-01-28T05:20:20.648Z,-0.94
2023-01-28T05:22:52.394Z,-1.01
2023-01-28T05:25:23.660Z,-1.09
2023-01-28T05:27:54.975Z,-1.27
2023-01-28T05:30:26.451Z,-1.40
2023-01-28T05:32:57.952Z,-1.41
2023-01-28T05:35:29.358Z,-1.41
2023-01-28T05:38:00.676Z,-1.48
2023-01-28T05:40:31.947Z,-1.56
2023-01-28T05:43:03.228Z,-1.64
2023-01-28T05:45:34.542Z,-1.69
2023-01-28T05:48:06.193Z,-1.78
2023-01-28T05:50:37.628Z,-1.87
2023-01-28T05:53:09.512Z,-1.81
2023-01-28T05:55:40.825Z,-1.92
2023-01-28T05:58:12.090Z,-1.94
2023-01-28T06:00:43.447Z,-1.89
2023-01-28T06:03:14.889Z,-1.91
2023-01-28T06:05:46.246Z,-1.94
2023-01-28T06:08:17.533Z,-1.99
2023-01-28T06:10:48.814Z,-2.03
2023-01-28T06:13:20.063Z,-2.20
2023-01-28T06:15:51.490Z,-2.14
2023-01-28T06:18:22.888Z,-2.20
2023-01-28T06:20:54.529Z,-2.39
2023-01-28T06:23:26.061Z,-2.28
2023-01-28T06:25:57.514Z,-2.34
2023-01-28T06:28:29.016Z,-2.47
2023-01-28T06:31:00.300Z,-2.37
2023-01-28T06:33:32.346Z,-2.39
2023-01-28T06:36:04.455Z,-2.39
2023-01-28T06:38:35.718Z,-2.38
2023-01-28T06:41:06.978Z,-2.34
2023-01-28T06:43:38.406Z,-2.53
2023-01-28T06:46:09.772Z,-2.37
2023-01-28T06:48:41.113Z,-2.36
2023-01-28T06:51:12.408Z,-2.34
2023-01-28T06:53:45.929Z,-2.33
2023-01-28T06:56:17.327Z,-2.33
2023-01-28T06:58:48.687Z,-2.33
2023-01-28T07:01:19.965Z,-2.34
2023-01-28T07:03:51.245Z,-2.34
2023-01-28T07:06:22.758Z,-2.38
2023-01-28T07:08:54.001Z,-2.39
2023-01-28T07:11:25.465Z,-2.42
2023-01-28T07:13:56.870Z,-2.55
2023-01-28T07:16:28.156Z,-2.49
2023-01-28T07:18:59.414Z,-2.53
2023-01-28T07:21:30.675Z,-2.59
2023-01-28T07:24:02.085Z,-2.73
2023-01-28T07:26:33.455Z,-2.70
2023-01-28T07:29:04.844Z,-2.69
2023-01-28T07:31:36.238Z,-2.68
2023-01-28T07:34:09.470Z,-2.70
2023-01-28T07:36:40.779Z,-2.74
2023-01-28T07:39:12.105Z,-2.77
2023-01-28T07:41:43.375Z,-2.77
2023-01-28T07:44:14.668Z,-2.71
2023-01-28T07:46:45.940Z,-2.64
2023-01-28T07:49:17.248Z,-2.75
2023-01-28T07:51:50.483Z,-2.63
2023-01-28T07:54:21.897Z,-2.74
2023-01-28T07:56:53.216Z,-2.64
2023-01-28T07:59:24.595Z,-2.77
2023-01-28T08:01:55.886Z,-2.63
2023-01-28T08:04:27.352Z,-2.60
2023-01-28T08:06:58.747Z,-2.51
2023-01-28T08:09:30.073Z,-2.46
2023-01-28T08:12:02.596Z,-2.50
2023-01-28T08:14:33.852Z,-2.27
2023-01-28T08:17:05.134Z,-2.11
2023-01-28T08:19:36.465Z,-1.95
2023-01-28T08:22:07.736Z,-1.91
2023-01-28T08:24:39.032Z,-1.70
2023-01-28T08:27:10.307Z,-1.61
2023-01-28T08:29:41.580Z,-1.69
2023-01-28T08:32:12.841Z,-1.50
2023-01-28T08:34:44.120Z,-1.39
2023-01-28T08:37:15.376Z,-1.34
2023-01-28T08:39:46.688Z,-1.27
2023-01-28T08:42:18.067Z,-1.19
2023-01-28T08:44:49.316Z,-1.36
2023-01-28T08:47:20.625Z,-0.99
2023-01-28T08:49:51.920Z,-0.86
2023-01-28T08:52:23.185Z,-0.74
2023-01-28T08:54:54.589Z,-0.58
2023-01-28T08:57:25.925Z,-0.58
2023-01-28T08:59:57.262Z,-0.53
2023-01-28T09:02:32.024Z,-0.45
2023-01-28T09:05:04.293Z,-0.31
2023-01-28T09:07:36.005Z,-0.23
2023-01-28T09:10:09.017Z,-0.18
2023-01-28T09:12:40.298Z,-0.24
2023-01-28T09:15:12.153Z,-0.34
2023-01-28T09:17:43.635Z,-0.52
2023-01-28T09:20:15.377Z,-0.58
2023-01-28T09:22:46.746Z,-0.47
2023-01-28T09:25:18.175Z,-0.38
2023-01-28T09:27:49.430Z,-0.31
2023-01-28T09:30:21.036Z,-0.20
2023-01-28T09:32:54.120Z,-0.14
2023-01-28T09:35:25.478Z,-0.05
2023-01-28T09:37:58.478Z,0.00
2023-01-28T09:40:37.371Z,0.12
2023-01-28T09:43:14.729Z,0.22
2023-01-28T09:45:48.787Z,0.32
2023-01-28T09:48:24.314Z,0.41
2023-01-28T09:50:55.705Z,0.48
2023-01-28T09:53:38.976Z,0.59
2023-01-28T09:56:20.665Z,0.69
2023-01-28T09:58:52.434Z,0.63
2023-01-28T10:01:46.322Z,0.82
2023-01-28T10:04:17.651Z,1.04
2023-01-28T10:07:01.873Z,1.23
2023-01-28T10:09:53.560Z,1.38
2023-01-28T10:12:42.273Z,1.50
2023-01-28T10:15:40.942Z,1.63
2023-01-28T10:18:17.521Z,1.65
2023-01-28T10:20:55.253Z,1.83
2023-01-28T10:23:38.788Z,2.02
2023-01-28T10:26:21.566Z,1.99
2023-01-28T10:28:57.628Z,2.07
2023-01-28T10:31:34.902Z,2.26
2023-01-28T10:34:06.224Z,2.39
2023-01-28T10:36:37.704Z,2.59
2023-01-28T10:39:13.873Z,2.77
2023-01-28T10:41:56.608Z,2.80
2023-01-28T10:44:38.034Z,2.77
2023-01-28T10:47:20.616Z,2.89
2023-01-28T10:49:56.840Z,2.87
2023-01-28T10:52:28.330Z,2.94
2023-01-28T10:55:02.317Z,3.07
2023-01-28T10:57:34.745Z,3.12
2023-01-28T11:00:31.692Z,3.13
2023-01-28T11:03:03.142Z,3.09
2023-01-28T11:05:34.471Z,3.37
2023-01-28T11:08:17.435Z,3.33
2023-01-28T11:10:49.351Z,3.70
2023-01-28T11:13:29.559Z,3.87
2023-01-28T11:16:04.878Z,3.86
2023-01-28T11:18:40.788Z,3.85
2023-01-28T11:21:33.029Z,3.84
2023-01-28T11:24:16.507Z,3.84
2023-01-28T11:26:54.342Z,3.80
2023-01-28T11:29:33.239Z,3.76
2023-01-28T11:32:04.731Z,3.47
2023-01-28T11:34:36.064Z,3.59
2023-01-28T11:37:16.188Z,3.69
2023-01-28T11:39:47.578Z,3.80
2023-01-28T11:42:21.103Z,3.64
2023-01-28T11:44:53.729Z,3.75
2023-01-28T11:47:31.006Z,3.80
2023-01-28T11:50:12.541Z,3.68
2023-01-28T11:53:16.775Z,3.50
2023-01-28T11:56:14.714Z,3.50
2023-01-28T11:59:12.027Z,3.42
2023-01-28T12:01:52.510Z,3.39
2023-01-28T12:04:58.884Z,3.35
2023-01-28T12:07:52.494Z,3.33
2023-01-28T12:10:43.993Z,3.43
2023-01-28T12:13:29.177Z,3.50
2023-01-28T12:16:18.900Z,3.50
2023-01-28T12:19:11.343Z,3.49
2023-01-28T12:22:08.421Z,3.36
2023-01-28T12:25:17.411Z,3.33
2023-01-28T12:28:14.710Z,3.22
2023-01-28T12:31:06.387Z,3.24
2023-01-28T12:34:23.558Z,3.18
2023-01-28T12:37:22.723Z,3.25
2023-01-28T12:40:19.197Z,3.12
2023-01-28T12:43:15.945Z,3.27
2023-01-28T12:46:11.803Z,3.35
2023-01-28T12:48:49.942Z,3.42
2023-01-28T12:51:24.855Z,3.50
2023-01-28T12:54:12.432Z,3.45
2023-01-28T12:56:48.961Z,3.46
2023-01-28T12:59:58.860Z,3.49
2023-01-28T13:02:36.015Z,3.51
2023-01-28T13:05:15.317Z,3.66
2023-01-28T13:08:03.625Z,3.89
2023-01-28T13:10:40.329Z,3.95
2023-01-28T13:13:27.101Z,4.03
2023-01-28T13:15:59.537Z,4.06
2023-01-28T13:18:40.111Z,4.08
2023-01-28T13:21:39.948Z,4.05
2023-01-28T13:24:15.142Z,4.27
2023-01-28T13:26:55.816Z,4.34
2023-01-28T13:29:33.997Z,4.28
2023-01-28T13:32:30.437Z,4.18
2023-01-28T13:35:07.930Z,4.12
2023-01-28T13:37:43.968Z,3.94
2023-01-28T13:40:15.260Z,4.02
2023-01-28T13:42:57.938Z,4.09
2023-01-28T13:45:30.371Z,4.21
2023-01-28T13:48:32.749Z,4.36
2023-01-28T13:51:09.835Z,4.35
2023-01-28T13:53:50.762Z,4.23
2023-01-28T13:56:26.656Z,4.26
2023-01-28T13:59:13.794Z,4.23
2023-01-28T14:02:07.078Z,4.29
2023-01-28T14:04:55.066Z,4.31
2023-01-28T14:07:54.382Z,4.25
2023-01-28T14:10:38.531Z,4.15
2023-01-28T14:13:33.714Z,4.08
2023-01-28T14:16:31.838Z,4.00
2023-01-28T14:19:03.673Z,4.07
2023-01-28T14:21:35.973Z,4.24
2023-01-28T14:24:17.418Z,4.27
2023-01-28T14:27:09.064Z,4.30
2023-01-28T14:29:46.085Z,4.32
2023-01-28T14:32:21.816Z,4.15
2023-01-28T14:34:53.906Z,4.28
2023-01-28T14:37:30.455Z,4.36
2023-01-28T14:40:06.160Z,4.39
2023-01-28T14:42:40.072Z,4.36
2023-01-28T14:45:17.214Z,4.40
2023-01-28T14:48:21.959Z,4.30
2023-01-28T14:51:10.739Z,4.19
2023-01-28T14:53:44.902Z,4.25
2023-01-28T14:56:49.039Z,4.26
2023-01-28T14:59:28.096Z,4.14
2023-01-28T15:01:59.889Z,4.08
2023-01-28T15:04:33.860Z,3.98
2023-01-28T15:07:23.033Z,3.80
2023-01-28T15:10:06.535Z,3.86
2023-01-28T15:12:40.933Z,3.86
2023-01-28T15:15:19.929Z,3.86
2023-01-28T15:17:52.131Z,3.90
2023-01-28T15:20:24.608Z,3.83
2023-01-28T15:22:56.077Z,3.79
2023-01-28T15:25:29.220Z,3.86
2023-01-28T15:28:01.970Z,3.87
2023-01-28T15:30:33.491Z,3.87
2023-01-28T15:33:14.384Z,3.73
2023-01-28T15:36:05.451Z,3.82
2023-01-28T15:38:36.777Z,3.66
2023-01-28T15:41:08.320Z,3.69
2023-01-28T15:43:39.836Z,3.62
2023-01-28T15:46:13.214Z,3.43
2023-01-28T15:48:51.523Z,3.46
2023-01-28T15:51:28.386Z,3.42
2023-01-28T15:54:05.178Z,3.34
2023-01-28T15:56:36.787Z,3.26
2023-01-28T15:59:31.143Z,3.22
2023-01-28T16:02:18.480Z,3.21
2023-01-28T16:05:04.782Z,3.16
2023-01-28T16:07:44.939Z,3.21
2023-01-28T16:10:24.847Z,3.22
2023-01-28T16:13:21.660Z,3.16
2023-01-28T16:15:55.046Z,3.20
2023-01-28T16:18:40.328Z,3.25
2023-01-28T16:21:18.526Z,3.27
2023-01-28T16:23:59.808Z,3.26
2023-01-28T16:26:34.206Z,3.23
2023-01-28T16:29:16.838Z,3.20
2023-01-28T16:31:48.191Z,3.12
2023-01-28T16:34:19.662Z,3.15
2023-01-28T16:36:50.940Z,3.16
2023-01-28T16:39:22.407Z,3.07
2023-01-28T16:41:53.936Z,3.16
2023-01-28T16:44:25.290Z,3.09
2023-01-28T16:46:56.666Z,3.08
2023-01-28T16:49:28.087Z,2.99
2023-01-28T16:52:00.651Z,3.00
2023-01-28T16:54:34.043Z,3.08
2023-01-28T16:57:05.570Z,3.07
2023-01-28T16:59:36.846Z,3.11
2023-01-28T17:02:17.810Z,3.12
2023-01-28T17:04:49.503Z,3.12
2023-01-28T17:07:20.830Z,3.13
2023-01-28T17:09:52.200Z,3.09
2023-01-28T17:12:23.578Z,3.08
2023-01-28T17:14:54.849Z,3.07
2023-01-28T17:17:26.174Z,3.07
2023-01-28T17:19:57.471Z,3.04
2023-01-28T17:22:28.867Z,2.91
2023-01-28T17:25:00.200Z,3.06
2023-01-28T17:27:31.918Z,3.07
2023-01-28T17:30:04.315Z,3.06
2023-01-28T17:32:35.655Z,3.08
2023-01-28T17:35:07.278Z,3.04
2023-01-28T17:37:38.587Z,3.06
2023-01-28T17:40:12.475Z,3.05
2023-01-28T17:42:43.788Z,3.03
2023-01-28T17:45:15.626Z,2.90
2023-01-28T17:47:47.782Z,2.95
2023-01-28T17:50:19.154Z,2.95
2023-01-28T17:52:57.626Z,2.96
2023-01-28T17:55:29.547Z,2.93
2023-01-28T17:58:00.957Z,2.92
2023-01-28T18:00:32.631Z,2.96
2023-01-28T18:03:03.896Z,2.92
2023-01-28T18:05:35.169Z,2.73
2023-01-28T18:08:07.529Z,2.79
2023-01-28T18:10:43.299Z,2.78
2023-01-28T18:13:14.649Z,2.73
2023-01-28T18:15:45.994Z,2.78
2023-01-28T18:18:17.237Z,2.72
2023-01-28T18:21:03.490Z,2.60
2023-01-28T18:23:34.762Z,2.53
2023-01-28T18:26:07.250Z,2.71
2023-01-28T18:28:38.727Z,2.71
2023-01-28T18:31:10.098Z,2.71
2023-01-28T18:33:41.805Z,2.70
2023-01-28T18:36:13.621Z,2.56
2023-01-28T18:38:45.807Z,2.57
2023-01-28T18:41:17.087Z,2.62
2023-01-28T18:43:48.444Z,2.68
2023-01-28T18:46:19.787Z,2.68
2023-01-28T18:48:51.783Z,2.65
2023-01-28T18:51:30.947Z,2.68
2023-01-28T18:54:04.036Z,2.70
2023-01-28T18:56:35.347Z,2.73
2023-01-28T18:59:10.014Z,2.73
2023-01-28T19:01:42.633Z,2.66
2023-01-28T19:04:15.469Z,2.80
2023-01-28T19:06:47.220Z,2.81
2023-01-28T19:09:18.573Z,2.70
2023-01-28T19:11:50.897Z,2.76
2023-01-28T19:14:22.312Z,2.76
2023-01-28T19:16:53.609Z,2.61
2023-01-28T19:19:25.182Z,2.59
2023-01-28T19:21:56.572Z,2.65
2023-01-28T19:24:28.503Z,2.37
2023-01-28T19:26:59.803Z,2.70
2023-01-28T19:29:31.204Z,2.68
2023-01-28T19:32:04.455Z,2.65
2023-01-28T19:34:35.838Z,2.76
2023-01-28T19:37:07.542Z,2.75
2023-01-28T19:39:38.917Z,2.79
2023-01-28T19:42:10.263Z,2.80
2023-01-28T19:44:41.646Z,2.81
2023-01-28T19:47:13.076Z,2.82
2023-01-28T19:49:44.388Z,2.80
2023-01-28T19:52:15.767Z,2.86
2023-01-28T19:54:48.094Z,2.73
2023-01-28T19:57:19.515Z,2.85
2023-01-28T19:59:50.827Z,2.72
2023-01-28T20:02:22.163Z,2.88
2023-01-28T20:05:00.725Z,2.76
2023-01-28T20:07:32.497Z,2.72
2023-01-28T20:10:04.116Z,2.84
2023-01-28T20:12:35.454Z,2.82
2023-01-28T20:15:08.373Z,2.86
2023-01-28T20:17:40.196Z,2.82
2023-01-28T20:20:11.925Z,2.76
2023-01-28T20:22:43.232Z,2.83
2023-01-28T20:25:16.514Z,2.87
2023-01-28T20:27:48.347Z,2.89
2023-01-28T20:30:19.753Z,2.91
2023-01-28T20:32:51.055Z,2.94
2023-01-28T20:35:22.377Z,2.87
2023-01-28T20:37:53.651Z,2.91
2023-01-28T20:40:26.107Z,2.91
2023-01-28T20:42:57.503Z,2.84
2023-01-28T20:45:31.105Z,2.87
2023-01-28T20:48:02.505Z,2.89
2023-01-28T20:50:34.847Z,2.77
2023-01-28T20:53:06.257Z,2.88
2023-01-28T20:55:37.576Z,2.90
2023-01-28T20:58:08.853Z,2.79
2023-01-28T21:00:40.177Z,2.87
2023-01-28T21:03:11.571Z,2.77
2023-01-28T21:05:46.797Z,2.72
2023-01-28T21:08:18.412Z,2.90
2023-01-28T21:10:49.904Z,2.87
2023-01-28T21:13:21.276Z,2.86
2023-01-28T21:15:54.756Z,2.89
2023-01-28T21:18:26.440Z,2.75
2023-01-28T21:21:07.105Z,2.89
2023-01-28T21:23:38.405Z,2.90
2023-01-28T21:26:10.368Z,2.89
2023-01-28T21:28:43.146Z,2.81
2023-01-28T21:31:17.188Z,2.83
2023-01-28T21:33:49.779Z,2.78
2023-01-28T21:36:22.077Z,2.79
2023-01-28T21:38:56.011Z,2.90
2023-01-28T21:41:27.787Z,2.83
2023-01-28T21:43:59.402Z,2.90
2023-01-28T21:46:33.685Z,2.75
2023-01-28T21:49:07.729Z,2.86
2023-01-28T21:51:48.019Z,2.95
2023-01-28T21:54:19.907Z,2.85
2023-01-28T21:56:52.242Z,2.93
2023-01-28T21:59:30.073Z,2.85
2023-01-28T22:02:13.210Z,2.96
2023-01-28T22:04:51.731Z,2.96
2023-01-28T22:07:23.079Z,2.82
2023-01-28T22:09:54.688Z,2.89
2023-01-28T22:12:27.987Z,2.98
2023-01-28T22:15:00.033Z,2.83
2023-01-28T22:17:31.514Z,2.90
2023-01-28T22:20:03.043Z,2.75
2023-01-28T22:22:34.442Z,2.85
2023-01-28T22:25:06.503Z,2.73
2023-01-28T22:27:37.955Z,2.79
2023-01-28T22:30:09.887Z,2.89
2023-01-28T22:32:41.147Z,2.72
2023-01-28T22:35:12.504Z,2.89
2023-01-28T22:37:44.260Z,2.84
2023-01-28T22:40:15.954Z,2.88
2023-01-28T22:42:47.569Z,2.92
2023-01-28T22:45:18.857Z,2.91
2023-01-28T22:47:50.247Z,2.84
2023-01-28T22:50:21.706Z,2.70
2023-01-28T22:52:53.063Z,2.80
2023-01-28T22:55:24.421Z,2.90
2023-01-28T22:57:55.798Z,2.81
2023-01-28T23:00:28.099Z,2.94
2023-01-28T23:03:00.422Z,2.87
2023-01-28T23:05:31.873Z,2.96
2023-01-28T23:08:12.163Z,2.88
2023-01-28T23:10:50.193Z,2.95
2023-01-28T23:13:21.681Z,2.96
2023-01-28T23:16:12.348Z,2.84
2023-01-28T23:19:02.583Z,2.93
2023-01-28T23:21:54.642Z,2.78
2023-01-28T23:24:27.953Z,3.01
2023-01-28T23:27:00.577Z,3.02
2023-01-28T23:29:32.163Z,2.95
2023-01-28T23:32:07.483Z,2.97
2023-01-28T23:34:46.217Z,2.99
2023-01-28T23:37:17.729Z,2.99
2023-01-28T23:39:49.013Z,2.91
2023-01-28T23:42:21.102Z,2.99
2023-01-28T23:44:52.421Z,3.02
2023-01-28T23:47:23.793Z,3.01
2023-01-28T23:49:55.116Z,3.00
2023-01-28T23:52:27.481Z,2.98
2023-01-28T23:54:58.770Z,3.00
2023-01-28T23:57:30.237Z,3.00
